Résultats 2019

Résultats 2018

Résultats 2020

01 - Chrono|Classement Scratch
Trail des tiges et chavées - Coutisse 2020
Classement Général
RangDos.Nom PrénomClubM/FCat.TempsEcart 1erMoyenne
27KM
1.586PAHOS AndreasM (1.)SeH (1.)2:01:54--13.2
2.500ROUCHET FrançoisTeam TraKKsM (2.)SeH (2.)2:01:55+0:0113.2
3.440FABRE FlorianM (3.)SeH (3.)2:08:20+6:2612.6
4.546VAN WEVERBERG TommyM (4.)V1H (1.)2:09:25+7:3112.5
5.413CAPELLE ChristianARCHM (5.)V2H (1.)2:10:19+8:2512.4
6.569ETIENNE FabriceM (6.)V2H (2.)2:15:44+13:5011.9
7.584HUBRECHTS JacobM (7.)SeH (4.)2:16:26+14:3211.8
8.534MACIEZ OtrebaM (8.)SeH (5.)2:16:46+14:5211.8
9.562TERMEER RobbieM (9.)SeH (6.)2:18:15+16:2111.7
10.410BOURTEMBOURG PierrotAxa running teamM (10.)SeH (7.)2:18:53+16:5911.6
11.492PERIN LoganTeam MarcelM (11.)EspH (1.)2:22:05+20:1111.4
12.489NIHOUL MichaelBiotrailM (12.)V1H (2.)2:22:27+20:3311.3
13.528VINCENT AdrienTEAM MCPM (13.)EspH (2.)2:23:15+21:2111.3
14.545LAMBERG OlivierM (14.)V2H (3.)2:25:56+24:0211.1
15.506SEVENS QuentinWeTrailM (15.)SeH (8.)2:25:58+24:0411.0
16.475LUXEN Jean MichelJ3/JCMPF GemblouxM (16.)V2H (4.)2:26:05+24:1111.0
17.525VANHEESBEKE Nicolas/M (17.)SeH (9.)2:26:31+24:3711.0
18.570VIS StephanM (18.)V2H (5.)2:27:53+25:5910.9
19.444FERON LaurentM (19.)V1H (3.)2:29:22+27:2810.8
20.527VIGNERON ManuelM (20.)SeH (10.)2:30:21+28:2710.7
21.558LUCAS ChristopheM (21.)V1H (4.)2:30:45+28:5110.7
22.414CHAVANNE BertrandM (22.)V1H (5.)2:34:48+32:5410.4
23.530WILLEMART KévinM (23.)SeH (11.)2:36:53+34:5910.3
24.437DUPONT JeromeM (24.)V1H (6.)2:37:47+35:5310.2
25.454HALKIN OlivierM (25.)EspH (3.)2:37:58+36:0410.2
26.477MAQUET JordanM (26.)SeH (12.)2:38:01+36:0710.2
27.403BAUDOIN PhilippeARCHM (27.)V2H (6.)2:38:20+36:2610.2
28.564HELQ DenisM (28.)V1H (7.)2:38:25+36:3110.2
29.490OGER StephanM (29.)SeH (13.)2:38:44+36:5010.2
30.515THEYS SophieF (1.)SeF (1.)2:38:48+36:5410.2
31.480MELIN ThibaultM (30.)SeH (14.)2:39:01+37:0710.1
32.557VAN DEN EYNDE PieterM (31.)SeH (15.)2:39:17+37:2310.1
33.556HAYEN SvenM (32.)V1H (8.)2:39:17+37:2310.1
34.501ROUHART DanielWACM (33.)V2H (7.)2:39:21+37:2710.1
35.532YOUF OlivierM (34.)SeH (16.)2:39:27+37:3310.1
36.526VAUTIER Brunohard'n trailM (35.)V2H (8.)2:39:52+37:5810.1
37.575DORMAL StephaneM (36.)V1H (9.)2:40:09+38:1510.1
38.441FAUCONNIER Jean-FrançoisLès mamés roteûsM (37.)V2H (9.)2:40:16+38:2210.1
39.574KALKMANN FredericM (38.)V1H (10.)2:40:17+38:2310.1
40.552SCHOLLEN BartM (39.)V1H (11.)2:40:19+38:2510.1
41.523VAN PEBORGH MicoDass mir egalM (40.)V2H (10.)2:41:42+39:4810.0
42.433DEWAIDE AntoniADM (41.)V1H (12.)2:41:56+40:0210.0
43.538DULON OlivierM (42.)V2H (11.)2:42:44+40:509.9
44.539DEGREZ FrancoisM (43.)SeH (17.)2:42:58+41:049.9
45.573KERIS RolandM (44.)V2H (12.)2:44:16+42:229.8
46.458HUBEAUX VincentBiotrail Running TeamM (45.)V2H (13.)2:44:45+42:519.8
47.409BOUILLARD JulienJoassin Trail TeamM (46.)SeH (18.)2:45:13+43:199.8
48.524VANDERPUTTEN KoenM (47.)V1H (13.)2:45:53+43:599.7
49.554PIRENNE MarcM (48.)V2H (14.)2:45:54+44:009.7
50.580GUIOT CedricM (49.)V1H (14.)2:46:39+44:459.7
51.485MIGNON Jean-PolJ3M (50.)V2H (15.)2:46:45+44:519.7
52.436DUPONT JérémieM (51.)SeH (19.)2:46:57+45:039.7
53.518UYTTERHAEGEN DavidM (52.)V1H (15.)2:47:09+45:159.6
54.505SCHILTZ FrédéricJamesM (53.)V1H (16.)2:47:17+45:239.6
55.495PIRSON AdrienAP FITM (54.)SeH (20.)2:47:18+45:249.6
56.478MATHIEU LudovicM (55.)V1H (17.)2:47:24+45:309.6
57.462KECH MichaelTAFM (56.)V1H (18.)2:47:34+45:409.6
58.553THIRY Samuel 2M (57.)V1H (19.)2:47:53+45:599.6
59.572RITROUATO SylvainM (58.)V1H (20.)2:48:27+46:339.6
60.543PERSOON PierreM (59.)SeH (21.)2:50:28+48:349.5
61.540BOONE FrancoisM (60.)V1H (21.)2:50:54+49:009.4
62.566VAN DEN BERGH BenM (61.)V1H (22.)2:53:02+51:089.3
63.446FROIDMONT DanielleF (2.)V2F (1.)2:54:35+52:419.2
64.469LEGROS GhislainM (62.)V1H (23.)2:54:35+52:419.2
65.457HECQ OlivierCoureurs célestes/J3M (63.)V2H (16.)2:55:21+53:279.2
66.484MICHELIS FrançoisRunning Team CondrozM (64.)SeH (22.)2:55:36+53:429.2
67.419COQUELET JoffreyCocoqM (65.)V1H (24.)2:56:47+54:539.1
68.583DARTOIS DidierM (66.)V2H (17.)2:57:04+55:109.1
69.415CHILIADE LuigiM (67.)V2H (18.)2:57:16+55:229.1
70.498PYCKE JonathanM (68.)SeH (23.)2:58:28+56:349.0
71.476MALENGREAUX BenjaminFAT TEAMM (69.)SeH (24.)2:58:31+56:379.0
72.555CALDERS JornM (70.)V2H (19.)2:58:45+56:519.0
73.401ARQUILLIERE YannClub ArkiM (71.)SeH (25.)2:58:46+56:529.0
74.581SMEERS YvesM (72.)V2H (20.)2:58:54+57:009.0
75.576NICOLAS GillesM (73.)V2H (21.)2:59:03+57:099.0
76.426DELCOURT GregoryM (74.)SeH (26.)2:59:06+57:129.0
77.471LENAERTS PeterM (75.)V1H (25.)2:59:48+57:549.0
78.418COLOT GuillaumeM (76.)SeH (27.)3:00:37+58:438.9
79.587DOBROWOCSKI JeanM (77.)SeH (28.)3:00:39+58:458.9
80.456HAULOTTE Olivierje cours à IncourtM (78.)V1H (26.)3:01:00+59:068.9
81.544BREUWER JonathanM (79.)SeH (29.)3:02:53+60:598.8
82.561MOSSOUX PierreM (80.)V2H (22.)3:02:53+60:598.8
83.536BUYTAERT FrankM (81.)V1H (27.)3:04:07+62:138.7
84.421DE HEPCÉE LaurentM (82.)V1H (28.)3:04:53+62:598.7
85.567LAMBRECHTS PatriciaF (3.)V1F (1.)3:05:40+63:468.7
86.503SALMON LucT-rex TeamM (83.)V1H (29.)3:05:58+64:048.7
87.565VAN MALLEGHEM OlivierM (84.)V2H (23.)3:06:10+64:168.7
88.588TYERLINGS JarrielM (85.)V1H (30.)3:06:16+64:228.6
89.493PIJCKE ElodieF (4.)SeF (2.)3:06:28+64:348.6
90.571KRUG EmmaF (5.)V2F (2.)3:08:38+66:448.5
91.568MATHIAS LaurentM (86.)V1H (31.)3:08:41+66:478.5
92.461KAVSE TonyM (87.)V1H (32.)3:09:14+67:208.5
93.402BAETENS DamienFFBCM (88.)V1H (33.)3:09:57+68:038.5
94.548DUCORNAIT EmilieF (6.)SeF (3.)3:10:51+68:578.4
95.541CARPIAUX SergeM (89.)V2H (24.)3:11:25+69:318.4
96.560GODFRAIND ChristianM (90.)V2H (25.)3:11:29+69:358.4
97.533HERMAN SergeM (91.)V2H (26.)3:11:52+69:588.4
98.511SOREL RenaudM (92.)SeH (30.)3:12:04+70:108.4
99.516TILLIEUX FrankM (93.)V2H (27.)3:12:35+70:418.4
100.522VAN HOVE FabriceM (94.)V1H (34.)3:13:02+71:088.3
101.582VAN WOENSEL GeraldM (95.)V1H (35.)3:13:03+71:098.3
102.479MAZZAGLIA PietroM (96.)V1H (36.)3:13:09+71:158.3
103.549SEYNAEVE LaurentM (97.)V1H (37.)3:13:13+71:198.3
104.434DONNAY CedricM (98.)V1H (38.)3:13:14+71:208.3
105.537DALATAS MehmetM (99.)V1H (39.)3:14:07+72:138.3
106.445FLOYMONT Oliviertca andenneM (100.)V2H (28.)3:15:30+73:368.2
107.404BAUWENS GuillaumeM (101.)SeH (31.)3:16:17+74:238.2
108.579VAN DEM EEDE NoelleF (7.)V2F (3.)3:18:07+76:138.1
109.459JESSA JohanM (102.)V1H (40.)3:18:08+76:148.1
110.452GOOSSENS AnnickETEnghienF (8.)V2F (4.)3:18:08+76:148.1
111.416CLOSE DominiqueRun essenceM (103.)V3H (1.)3:18:11+76:178.1
112.411BRACONE ChristelleF (9.)SeF (4.)3:19:20+77:268.1
113.451GOORIS VincentM (104.)V2H (29.)3:19:23+77:298.1
114.412BRANKART BenoîtRunning Oreye ClubM (105.)V2H (30.)3:19:25+77:318.1
115.431DESSY ValeryRunning Oreye ClubM (106.)V1H (41.)3:19:26+77:328.1
116.542GODFROID AlainM (107.)V2H (31.)3:19:32+77:388.1
117.483MICHEL OlivierGagM (108.)SeH (32.)3:20:40+78:468.0
118.502SALES FrançoisE.T . EnghienM (109.)V2H (32.)3:21:05+79:118.0
119.474LORGE PascalTram MahiaM (110.)V2H (33.)3:22:12+80:188.0
120.417CLOSE-LECOCQ BenoitM (111.)SeH (33.)3:22:13+80:198.0
121.535NAUTZ ThierryM (112.)SeH (34.)3:22:38+80:447.9
122.547ROSILLON DominiqueM (113.)V3H (2.)3:23:53+81:597.9
123.464KINET OlivierRunning tram CondrozM (114.)V1H (42.)3:24:02+82:087.9
124.423DEFFET BenoitM (115.)V1H (43.)3:25:18+83:247.8
125.531WILMART GeoffreyBmbM (116.)V1H (44.)3:25:21+83:277.8
126.453GRENSON JulienM (117.)SeH (35.)3:26:38+84:447.8
127.550SEYNAEVE BenoitM (118.)V1H (45.)3:28:47+86:537.7
128.563BOSSON QuentinM (119.)SeH (36.)3:29:25+87:317.7
129.467LECOMTE MichelRC NamurM (120.)V3H (3.)3:29:59+88:057.7
130.472LESTRATE GabrielHeinM (121.)V3H (4.)3:29:59+88:057.7
131.425DELAHAYE YvesM (122.)V3H (5.)3:31:14+89:207.6
132.514SYDOR GuyM (123.)V2H (34.)3:31:51+89:577.6
133.507SMITS DavidM (124.)V1H (46.)3:31:59+90:057.6
134.521VAN HOUDT GuntherM (125.)V1H (47.)3:35:39+93:457.5
135.578BAUDUIN StéphanieF (10.)SeF (5.)3:36:22+94:287.4
136.577JEUNIAUX OlivierM (126.)V1H (48.)3:36:22+94:287.4
137.520VAN GYSEL MaudF (11.)V1F (2.)3:40:14+98:207.3
138.466LAZARON Dimitribio trailM (127.)V1H (49.)3:42:51+100:577.2
139.585DESSANDRE NicolasM (128.)SeH (37.)3:42:53+100:597.2
140.559HALLET PhilippeM (129.)V1H (50.)3:48:42+106:487.0
141.408BOTQUIN HuguesAthois d'courirM (130.)V2H (35.)3:52:07+110:136.9
142.465KUYSTERMANS TijlM (131.)V1H (51.)3:52:09+110:156.9
143.512STATSYNS Jean-FrançoisM (132.)V2H (36.)3:53:14+111:206.9
144.494PIRE NicolasPrimaveraM (133.)V1H (52.)3:54:11+112:176.9
145.509SOMJA FlorenceF (12.)SeF (6.)3:55:22+113:286.8
146.513STRUVAY LudovicM (134.)SeH (38.)3:57:49+115:556.8
147.504SCHEERS MichaelM (135.)SeH (39.)3:57:49+115:556.8
148.435DRÈZE QuentinTeam MarcelM (136.)V1H (53.)4:01:19+119:256.7
149.430DESPY PascalGAGM (137.)V1H (54.)4:03:28+121:346.6
150.470LEMMENS StéphanieGagF (13.)V1F (3.)4:03:28+121:346.6
151.438DURELLO ValérieF (14.)V1F (4.)4:06:05+124:116.5
152.429DENOISIEUX ChristianHerv ACM (138.)V2H (37.)4:06:05+124:116.5
153.517TITART PaulRCBM (139.)V2H (38.)4:14:11+132:176.3
154.551VENEZIANO CarineF (15.)V1F (5.)4:21:16+139:226.2
155.510SOMMELET ValerieACVAF (16.)V1F (6.)4:26:11+144:176.0
156.442FAJTMANN ClaudemystèreM (140.)V3H (6.)4:41:43+159:495.7
157.482MERLIN JoëlleCSF MystèreF (17.)V1F (7.)4:41:44+159:505.7
158.460JODOGNE RaphaëlM (141.)V1H (55.)a.k.+11:1112.1
159.508SOHET MaximeMystereM ()SeH ()AB-121:54
160.439EXELMANS OliverM ()SeH (40.)NP-121:54
161.443FEIJEN PatrikM ()V2H (39.)NP-121:54
162.447GARCIA Jose-LuisM ()V2H (40.)NP-121:54
163.448GEETS BertrandM ()V2H (41.)NP-121:54
164.449GEETS BertrandM ()V2H (42.)NP-121:54
165.450GENET MagaliJamesF ()V1F (8.)NP-121:54
166.455HARRY DjecbitricM ()V2H (43.)NP-121:54
167.463KERGEN RaphaëlTNTM ()V1H (56.)NP-121:54
168.468LEGENDRE NinonF ()V1F (9.)NP-121:54
169.473LESTRATE OlivierHeinM ()V1H (57.)NP-121:54
170.481MERCKX PatrickVolharding BeverenM ()V2H (44.)NP-121:54
171.486MINEUR LaurentM ()SeH (41.)NP-121:54
172.487MOREELS CamilleF ()SeF (7.)NP-121:54
173.488NECKEBROECK RonnyM ()V1H (58.)NP-121:54
174.491PEETERS NicholasM ()SeH (42.)NP-121:54
175.496POSKIN ThierryM ()V3H (7.)NP-121:54
176.499ROQUET RaphaelM ()V1H (59.)NP-121:54
177.519VAN DEN BRANDE FilipM ()V2H (45.)NP-121:54
178.529WERGIFOSSE ThierryM ()V1H (60.)NP-121:54
179.405BERGER ThierryM ()V2H (46.)NP-121:54
180.406BIASINO FabriceM ()V1H (61.)NP-121:54
181.407BOQUÉ DidierBiotrail/SkyrunnerM ()V2H (47.)NP-121:54
182.420DE BOCK IvoVolharding BeverenM ()V2H (48.)NP-121:54
183.424DEHALU LionelM ()SeH (43.)NP-121:54
184.427DELENS FrédéricM ()V1H (62.)NP-121:54
185.428DENDONCKER NicolasM ()V1H (63.)NP-121:54
186.432DEVILLET MichelActivedev.beM ()V2H (49.)NP-121:54
15KM
1.3562RODRIQUE JordaneArch Athlétisme - Running Ciney Haute-MeuseM (1.)SeH (1.)1:01:57--14.5
2.3609LEJEUNE SylvainM (2.)SeH (2.)1:02:44+0:4714.3
3.3481GROSSI RafaelLife sportM (3.)SeH (3.)1:06:17+4:2013.5
4.3451DEMEURE NathanTTRM (4.)SeH (4.)1:06:19+4:2213.5
5.3619COUNET ClementM (5.)SeH (5.)1:06:22+4:2513.5
6.3663PRÉVOT JulienM (6.)SeH (6.)1:06:24+4:2713.5
7.3671VANDERCAM NicolasM (7.)SeH (7.)1:08:35+6:3813.1
8.3472FRISON DavidFrison teamM (8.)V1H (1.)1:08:35+6:3813.1
9.3471FRASELLE JérémieM (9.)V1H (2.)1:09:34+7:3712.9
10.3577THOMAS FlorianM (10.)SeH (8.)1:09:35+7:3812.9
11.3658SALMIN LoicM (11.)SeH (9.)1:09:36+7:3912.9
12.3612DE VLEESCHAUWER DimitriM (12.)SeH (10.)1:09:42+7:4512.9
13.3516LEYH FranckM (13.)SeH (11.)1:14:01+12:0412.1
14.3475GASPARD JeremyOmegaM (14.)SeH (12.)1:14:33+12:3612.0
15.3597KUYPERS ChristopheM (15.)V1H (3.)1:15:20+13:2311.9
16.3614ROLAND OlivierM (16.)V1H (4.)1:15:20+13:2311.9
17.3660SCHOUTTETEN KennyM (17.)SeH (13.)1:15:35+13:3811.9
18.3488HEMBISE ThomasRun YeupM (18.)SeH (14.)1:15:48+13:5111.8
19.3438CLERCQ BenjaminM (19.)SeH (15.)1:16:35+14:3811.7
20.3460DEVALCKENEER QuentinM (20.)EspH (1.)1:16:38+14:4111.7
21.3482GRUWEZ GillesM (21.)SeH (16.)1:16:42+14:4511.7
22.3570SERVAIS JohanLes HuynnersM (22.)V1H (5.)1:16:52+14:5511.7
23.3595PONCELET FredericM (23.)V1H (6.)1:17:36+15:3911.6
24.3640THEMANS KarlM (24.)SeH (17.)1:17:55+15:5811.5
25.3634VANHULST NicolasM (25.)SeH (18.)1:18:07+16:1011.5
26.3623CAPRARO BonifacioM (26.)V1H (7.)1:18:13+16:1611.5
27.3525MALHERBE GuillaumeLes BalbuzardsM (27.)SeH (19.)1:18:14+16:1711.5
28.3645ADRIAENS JosM (28.)V2H (1.)1:18:16+16:1911.4
29.3447DEHIN LudovicOcanM (29.)V2H (2.)1:18:34+16:3711.4
30.3557RASIR SamuelOcanM (30.)SeH (20.)1:18:34+16:3711.4
31.3665BASTIN JonathanM (31.)SeH (21.)1:18:37+16:4011.4
32.3594ZEERARDS QuentinM (32.)SeH (22.)1:19:03+17:0611.3
33.3492HEREMANS J-FM (33.)SeH (23.)1:19:30+17:3311.3
34.3486HANSEN PascalTeam MarcelM (34.)V2H (3.)1:19:36+17:3911.3
35.3521MAHIN JenniferF (1.)SeF (1.)1:19:41+17:4411.2
36.3556PUFFET DenisM (35.)SeH (24.)1:19:47+17:5011.2
37.3639LEESTMANS Jean BaptisteM (36.)SeH (25.)1:20:06+18:0911.2
38.3611SIMON DimitriM (37.)V2H (4.)1:20:15+18:1811.2
39.3484GUISSET JulienTCAM (38.)SeH (26.)1:20:46+18:4911.1
40.3628VIS GaspardM (39.)JuH (1.)1:20:55+18:5811.1
41.3572SIMON JonathanM (40.)SeH (27.)1:21:02+19:0511.1
42.3495HERQUIN ClaudyFleuM (41.)V2H (5.)1:21:07+19:1011.0
43.3480GREGOIRE AudeRCNAMURF (2.)SeF (2.)1:21:46+19:4911.0
44.3515LEMIRE LaurentM (42.)V1H (8.)1:21:48+19:5111.0
45.3605GUILMAIN JeromeM (43.)V1H (9.)1:21:53+19:5610.9
46.3596DARDENNE PaulinM (44.)SeH (28.)1:22:22+20:2510.9
47.3643NOEL J-FrancoisM (45.)SeH (29.)1:22:25+20:2810.9
48.3641HALLAK GaetanM (46.)SeH (30.)1:22:50+20:5310.8
49.3622ZEDDA TimoM (47.)V2H (6.)1:22:54+20:5710.8
50.3510LÉCHAUDÉ RomainM (48.)EspH (2.)1:23:16+21:1910.8
51.3506LAHAUT SteveM (49.)SeH (31.)1:23:23+21:2610.7
52.3529MARCHANDISE DamienOméga nutritionM (50.)SeH (32.)1:23:25+21:2810.7
53.3655ROCOUR BertrandM (51.)SeH (33.)1:23:36+21:3910.7
54.3410BAUMANS BenoitrunastockM (52.)V1H (10.)1:23:40+21:4310.7
55.3627MONIOTE Gilles-AntoineM (53.)V2H (7.)1:23:57+22:0010.7
56.3439CLOSE JonathanM (54.)SeH (34.)1:23:58+22:0110.7
57.3670DENIS OlivierM (55.)SeH (35.)1:24:04+22:0710.7
58.422DE VRIENDT JeffryM (56.)SeH (36.)1:24:17+22:2010.6
59.3463DORTHU HugoMistouflonM (57.)V1H (11.)1:24:23+22:2610.6
60.3560ROBIN MichaelCAP BeauraingM (58.)V1H (12.)1:24:31+22:3410.6
61.3675LAMBERT SebastienM (59.)SeH (37.)1:25:06+23:0910.5
62.3664LECLERE CorentinM (60.)SeH (38.)1:26:25+24:2810.4
63.3606CHARLES MannuelM (61.)V1H (13.)1:27:22+25:2510.3
64.3656LALLEMAND ThibautM (62.)SeH (39.)1:27:23+25:2610.3
65.3409BARON NicolasM (63.)SeH (40.)1:27:32+25:3510.2
66.3462DOGNAUX JulienM (64.)SeH (41.)1:28:17+26:2010.1
67.3600MATTART EricM (65.)V1H (14.)1:28:22+26:2510.1
68.3545NEERINCKX JonathanM (66.)SeH (42.)1:28:22+26:2510.1
69.3603CHANTIER ClementM (67.)SeH (43.)1:28:23+26:2610.1
70.3608DECAMPS HansM (68.)SeH (44.)1:29:13+27:1610.0
71.3607FRANCOIS ValerieF (3.)V2F (1.)1:29:19+27:2210.0
72.3599LELOUX LaurentM (69.)V1H (15.)1:29:19+27:2210.0
73.3452DENIS BenoitM (70.)V1H (16.)1:29:27+27:3010.0
74.3659DODEMONT FabianM (71.)V1H (17.)1:29:31+27:3410.0
75.3553PIROT QuentinM (72.)SeH (45.)1:29:32+27:3510.0
76.3502JAUMOTTE FabienM (73.)SeH (46.)1:29:44+27:4710.0
77.3435CHARLOTTE MichelM (74.)V3H (1.)1:29:50+27:5310.0
78.3555PREVOT Maximerc namurM (75.)SeH (47.)1:30:07+28:109.9
79.3489HENROT CédricM (76.)V1H (18.)1:30:10+28:139.9
80.3499HUBERT HenriM (77.)V2H (8.)1:30:16+28:199.9
81.497POUCET OlivierM (78.)V1H (19.)1:30:52+28:559.9
82.3541MONFORT EmelineF (4.)SeF (3.)1:32:07+30:109.7
83.3479GOOSSENS BenoitM (79.)V1H (20.)1:32:09+30:129.7
84.3411BEEL PieterM (80.)SeH (48.)1:32:39+30:429.7
85.3496HONNAY LaurentM (81.)V1H (21.)1:32:47+30:509.7
86.3630HAUTECLER MaximeM (82.)SeH (49.)1:33:08+31:119.6
87.3626THOMAS JeremyM (83.)SeH (50.)1:33:25+31:289.6
88.3583VERCRUYSSE OlivierJeneffe TrailM (84.)V1H (22.)1:33:55+31:589.5
89.3571SEUTIN GaetanM (85.)V1H (23.)1:33:57+32:009.5
90.3403ARQUILLIERE YvonClub ArkiM (86.)V3H (2.)1:33:59+32:029.5
91.3558REMELS AlainM (87.)V2H (9.)1:34:04+32:079.5
92.3539MINA MarineF (5.)SeF (4.)1:34:06+32:099.5
93.3543MONVILLE BernardM (88.)V2H (10.)1:34:21+32:249.5
94.3552PHILIPPE JulienM (89.)EspH (3.)1:34:22+32:259.5
95.3604VAST FredericM (90.)SeH (51.)1:34:39+32:429.5
96.3566ROUSSELLE IsabelleF (6.)V1F (1.)1:34:41+32:449.5
97.3434CHARLOTTE CharlotteF (7.)SeF (5.)1:34:49+32:529.4
98.3673LESENFANS BenjaminM (91.)SeH (52.)1:35:00+33:039.4
99.3610FOHAL LaurentM (92.)V1H (24.)1:35:36+33:399.4
100.3450DEMARET MélanieOCRBWF (8.)SeF (6.)1:36:03+34:069.3
101.3485HANQUET YvesRunastockM (93.)V2H (11.)1:36:05+34:089.3
102.3548PARISSE ChristianRun'à stockM (94.)V2H (12.)1:36:11+34:149.3
103.3666ELLERMONT DieterM (95.)SeH (53.)1:36:56+34:599.2
104.3579VALDES FabianM (96.)V1H (25.)1:37:06+35:099.2
105.3427BRISON KathyWACF (9.)V1F (2.)1:37:13+35:169.2
106.3514LEGROS PascalWacM (97.)V2H (13.)1:37:13+35:169.2
107.3550PETERS JulieLegs goF (10.)V1F (3.)1:37:28+35:319.2
108.3465DUMONT BernardM (98.)V2H (14.)1:37:53+35:569.1
109.3649DE BODT GeoffreyM (99.)V1H (26.)1:37:56+35:599.1
110.3585VERJANS SarahBichette TeamF (11.)SeF (7.)1:38:00+36:039.1
111.3559RENAULT GrégoryBichetteM (100.)V1H (27.)1:38:01+36:049.1
112.3405BALFROID YvanSMACM (101.)V2H (15.)1:38:02+36:059.1
113.3437CHRISTIAENS ChristopheM (102.)V1H (28.)1:38:11+36:149.1
114.3629DUCHENE YvesM (103.)V1H (29.)1:38:15+36:189.1
115.3426BRIDOUX SophieZatac YvoirF (12.)SeF (8.)1:38:17+36:209.1
116.3505KUMPS FabriceJAMESM (104.)V1H (30.)1:38:33+36:369.1
117.3598VAN HESPEN BenoitM (105.)V2H (16.)1:38:34+36:379.1
118.3414BLAIMONT CédricM (106.)V1H (31.)1:38:41+36:449.1
119.3448DEJASSE OlivierOméga nutrition sportM (107.)V1H (32.)1:38:41+36:449.1
120.3534VIGNERON SabineRCNamurF (13.)V2F (2.)1:38:45+36:489.1
121.3419BOUFFIOUX FrédéricM (108.)V2H (17.)1:38:50+36:539.1
122.3621MELCKENBEECK VincentM (109.)V1H (33.)1:39:57+38:009.0
123.3508LASCHET SarahF (14.)SeF (9.)1:40:11+38:148.9
124.3417BOLLY SégolèneF (15.)SeF (10.)1:40:15+38:188.9
125.3582VANOVERBERGHE RégisChicken Run TeamM (110.)V1H (34.)1:40:28+38:318.9
126.3676CARLIER EtienneM (111.)SeH (54.)1:41:10+39:138.8
127.3449DELOBBE CatherineF (16.)V1F (4.)1:41:30+39:338.8
128.3402AOUICHA JulienM (112.)SeH (55.)1:41:32+39:358.8
129.3536MEDAETS AlizéeRCNamurF (17.)SeF (11.)1:41:42+39:458.8
130.3568SCHURMANS BaptisteM (113.)EspH (4.)1:41:44+39:478.8
131.3498HOUBION MichaëlM (114.)V1H (35.)1:41:55+39:588.8
132.3453DENIS RenaudM (115.)V1H (36.)1:42:46+40:498.7
133.3412BERTRAND AdrienM (116.)SeH (56.)1:43:31+41:348.6
134.3533MATHY Jean-LucRCNamurM (117.)V3H (3.)1:43:31+41:348.6
135.3661ALBANT ValerieF (18.)SeF (12.)1:43:38+41:418.6
136.3490HENROTAY FredericM (118.)V1H (37.)1:43:50+41:538.6
137.3642DESSAMBRE PaulineF (19.)SeF (13.)1:44:12+42:158.6
138.3636STAS VeroniqueF (20.)V1F (5.)1:44:18+42:218.6
139.3672DETHIER CeliaF (21.)SeF (14.)1:45:18+43:218.5
140.3601HENNRY StephaneM (119.)V3H (4.)1:45:27+43:308.5
141.3477GILIS MarcM (120.)V2H (18.)1:45:46+43:498.5
142.3483GUIOT MarcJCPMF EghezeeM (121.)V3H (5.)1:45:47+43:508.5
143.3546NINANE Anne-FrançoiseF (22.)V1F (6.)1:46:07+44:108.4
144.3494HERMAN YannickM (122.)V1H (38.)1:46:09+44:128.4
145.3519LUCAS NathalieF (23.)SeF (15.)1:46:14+44:178.4
146.3430CEULEERS SabineF (24.)V1F (7.)1:46:20+44:238.4
147.3576TANASE ArielleJIAF (25.)V2F (3.)1:46:23+44:268.4
148.3625WALLERACE HuguesM (123.)V1H (39.)1:46:49+44:528.4
149.3470FRAIPONT SabineFchaF (26.)V1F (8.)1:47:03+45:068.4
150.3530MARION NicolasLes tétardsM (124.)SeH (57.)1:47:17+45:208.3
151.3531MAROT AnneLes tétardsF (27.)SeF (16.)1:47:17+45:208.3
152.3513LEGROS MylèneBiotrailF (28.)V1F (9.)1:47:30+45:338.3
153.3454DESART YvesBiotrailM (125.)V2H (19.)1:47:30+45:338.3
154.3561ROBIOLLE MaitéF (29.)SeF (17.)1:48:06+46:098.3
155.3584VERDONCK Jean-AlexandreM (126.)V1H (40.)1:48:09+46:128.3
156.3591WILLEMART XavierM (127.)V2H (20.)1:49:12+47:158.2
157.3618BASTOGNE OlivierM (128.)V1H (41.)1:49:54+47:578.1
158.3547PACORUS MurielF (30.)V1F (10.)1:49:57+48:008.1
159.3527MANIQUET CindyF (31.)V1F (11.)1:50:02+48:058.1
160.3491HENRY ValerieF (32.)V1F (12.)1:50:03+48:068.1
161.3461DEWEZ ThomasM (129.)SeH (58.)1:50:04+48:078.1
162.3507LANNOY CaroleF (33.)SeF (18.)1:50:04+48:078.1
163.3674DEWEZ AlexM (130.)V3H (6.)1:50:06+48:098.1
164.3632JASSOGNE GregoryM (131.)SeH (59.)1:50:06+48:098.1
165.3404BALFROID EricM (132.)V2H (21.)1:50:09+48:128.1
166.3631JASSOGNE ClaudyM (133.)V3H (7.)1:50:17+48:208.1
167.3554POCHET Francoisetreck&trailF (34.)V2F (4.)1:50:20+48:238.1
168.3578TIMMERMANS SébastienM (134.)SeH (60.)1:50:20+48:238.1
169.3650PEETERS MichelM (135.)V1H (42.)1:51:03+49:068.1
170.3657MICHIELSEN JasminF (35.)SeF (19.)1:51:10+49:138.0
171.3635CORRIER ChristineF (36.)V2F (5.)1:51:15+49:188.0
172.3425BRIDOUX JulieF (37.)SeF (20.)1:51:21+49:248.0
173.3497HOQUEZ IsabelleJCPMF EghezéeF (38.)V1F (13.)1:51:22+49:258.0
174.3647LALLEMAND PascaleF (39.)V1F (14.)1:51:26+49:298.0
175.3476GÉRARD MartineT-rexF (40.)V2F (6.)1:52:43+50:467.9
176.3652HENNUY JohanM (136.)V1H (43.)1:52:44+50:477.9
177.3651ROLAND LaurenceF (41.)V1F (15.)1:52:44+50:477.9
178.3537MESZAROS AngéliqueF (42.)SeF (21.)1:52:52+50:557.9
179.3586VERMEERSCH LaetitiaI LOVE RUNNING LIÈGEF (43.)SeF (22.)1:52:53+50:567.9
180.3466DUPRIEZ BeatriceF (44.)V2F (7.)1:52:55+50:587.9
181.3517LOSSIGNOL DominiqueM (137.)V3H (8.)1:52:55+50:587.9
182.3456DESIRON AnaisRCNamurF (45.)SeF (23.)1:53:07+51:107.9
183.3413BINDELLE ThomasM (138.)SeH (61.)1:53:17+51:207.9
184.3565ROUSSEAU StéphanieCAP BeauraingF (46.)SeF (24.)1:53:33+51:367.9
185.3509LÉCHAUDÉ FrédéricM (139.)V2H (22.)1:53:38+51:417.9
186.3616BIERNAUX BenoitM (140.)V2H (23.)1:53:39+51:427.9
187.3540MOHIMONT NathalieClub HeinF (47.)V2F (8.)1:53:39+51:427.9
188.3418BOUCHAT EstelleRunning team condrozF (48.)SeF (25.)1:53:40+51:437.9
189.3587VIEILLEVOYE LaetitiaILove RunningF (49.)V1F (16.)1:53:53+51:567.9
190.3407BARBÉ DelphineRunning Team CondrozF (50.)SeF (26.)1:54:12+52:157.8
191.3602HOUTHOOFDT NathalieF (51.)V2F (9.)1:54:13+52:167.8
192.3592WUYAME LaetitiaF (52.)V1F (17.)1:54:24+52:277.8
193.3667LERUTH KrisM (141.)V1H (44.)1:54:24+52:277.8
194.3653NOIROT FredericM (142.)V1H (45.)1:54:58+53:017.8
195.3654DOBRANGE LaurenceF (53.)V1F (18.)1:54:58+53:017.8
196.3522MALAISSE BenjaminM (143.)SeH (62.)1:55:06+53:097.8
197.3615BASTIEN VirginieF (54.)SeF (27.)1:55:17+53:207.8
198.3613HEYNS SoniaF (55.)V1F (19.)1:55:21+53:247.8
199.3662NKUBITO WillyM (144.)V1H (46.)1:55:30+53:337.7
200.3668LARMUSEAU StefanieF (56.)V1F (20.)1:55:42+53:457.7
201.3617BASTOGNE ClemenceF (57.)JuF (1.)1:56:14+54:177.7
202.3569SCOUPE NanouTKVF (58.)V2F (10.)1:57:05+55:087.6
203.3424BRASSART MarcusTKVM (145.)V1H (47.)1:57:06+55:097.6
204.3429CATTELAIN KarinNatu'RUNF (59.)V1F (21.)1:57:13+55:167.6
205.3433CHARLIER SébastienNatu'RunM (146.)V1H (48.)1:57:34+55:377.6
206.3624CHARLIER EdithF (60.)SeF (28.)1:57:39+55:427.6
207.3406BARANGER CharlieF (61.)SeF (29.)1:57:49+55:527.6
208.3458DESSART DelphineF (62.)SeF (30.)1:58:31+56:347.5
209.3524MALHERBE GaudricM (147.)SeH (63.)1:58:52+56:557.5
210.3532MASURE AlexandreRCNamurM (148.)V2H (24.)1:59:32+57:357.5
211.3468FADEUR EstelleJcpmfF (63.)V1F (22.)1:59:33+57:367.5
212.3408BARKANI RachidaM (149.)V2H (25.)1:59:38+57:417.5
213.3500HUBLAU SylvieGagF (64.)V2F (11.)1:59:40+57:437.5
214.3526MALOTAUX PascaleGAGF (65.)V2F (12.)1:59:40+57:437.5
215.3542MONJOIE VirginieFCHAF (66.)SeF (31.)1:59:51+57:547.5
216.3669SOKOLOVSKA IvanaF (67.)V2F (13.)2:00:07+58:107.4
217.3644PIRONNET EricM (150.)V2H (26.)2:00:52+58:557.4
218.3504KLINKENBERG ChristelF (68.)V1F (23.)2:01:46+59:497.3
219.3638DAIN SimonM (151.)SeH (64.)2:03:43+61:467.2
220.3637BASTIN VirginieF (69.)SeF (32.)2:03:44+61:477.2
221.3473GALAND CatherineF (70.)V3F (1.)2:05:26+63:297.1
222.3440COLINET SarahF (71.)V1F (24.)2:05:27+63:307.1
223.3416BODART VéroniqueNatu'RunF (72.)V1F (25.)2:05:36+63:397.1
224.3620DEBRY LaurenceM (152.)V3H (9.)2:06:56+64:597.0
225.3469FERRANDIS SalvaM (153.)V1H (49.)2:08:10+66:137.0
226.3646STEVENART StephanieF (73.)V1F (26.)2:08:43+66:466.9
227.3415BLONDIAU PascaleJCPMF EghezeeF (74.)V2F (14.)2:08:44+66:476.9
228.3428BYLOOS ValérieBiotrailF (75.)V1F (27.)2:08:44+66:476.9
229.3633DENIL NathalieF (76.)V1F (28.)2:08:45+66:486.9
230.3503JONCKERS CarolineJcpmf SombreffeF (77.)V1F (29.)2:08:46+66:496.9
231.3445DE KONINCK JanM (154.)V2H (27.)2:08:53+66:566.9
232.3442DAS LaetitiaF (78.)V1F (30.)2:12:04+70:076.8
233.3436CHOPCIAN SylwiaGAG gemblouxF (79.)V1F (31.)2:12:16+70:196.8
234.3528MAQUET Sylvieles EolcesF (80.)V2F (15.)2:12:30+70:336.7
235.3551PHILIPKIN FrancineRun essenceF (81.)V3F (2.)2:16:00+74:036.6
236.3457DESMONS Sandrine10 femmes pour un 4000 milleF (82.)V1F (32.)3:06:19+124:224.8
237.3401ALEXIS Carl-EricPDOTeamM ()V1H (50.)NP-61:57
238.3420BOURGEOIS RemyM ()SeH (65.)NP-61:57
239.3421BOURGUET ÉricM ()V3H (10.)NP-61:57
240.3422BOURGUET JoyF ()SeF (33.)NP-61:57
241.3423BOUVIER BenoitM ()V1H (51.)NP-61:57
242.3431CEUNINCK YannM ()V1H (52.)NP-61:57
243.3432CHARLES PatriciaGagF ()V2F (16.)NP-61:57
244.3441CYRIS KarolineF ()V1F (33.)NP-61:57
245.3443DAVID AnnickR.C NamurF ()V2F (17.)NP-61:57
246.3444DAVID JonathanM ()SeH (66.)NP-61:57
247.3446DEHARENG RenaudM ()V1H (53.)NP-61:57
248.3455DESERANNO VéroniqueGagF ()V1F (34.)NP-61:57
249.3459DETHINE LucM ()V2H (28.)NP-61:57
250.3464DULIEU RaymondM ()V2H (29.)NP-61:57
251.3467DUTERME AndrégesvesM ()V2H (30.)NP-61:57
252.3474GASPARD ChristianM ()V2H (31.)NP-61:57
253.3478GIOZZET FrédéricBibinnerunnersM ()SeH (67.)NP-61:57
254.3487HAYETTE ChristopheE.T.EnghienM ()SeH (68.)NP-61:57
255.3493HERICHER CorentinM ()SeH (69.)NP-61:57
256.3501IVERGNEAU GaetaneBIOTRAILF ()V2F (18.)NP-61:57
257.3511LECOMTE MathieuHeinM ()SeH (70.)NP-61:57
258.3512LECOMTE NicolasEnjoy SportM ()SeH (71.)NP-61:57
259.3518LOULAERT FredericM ()V1H (54.)NP-61:57
260.3523MALEVEZ NathalieGAGF ()V1F (35.)NP-61:57
261.3535MAURY GregoryM ()SeH (72.)NP-61:57
262.3538MICHAUX DidierJTB (Besonrieux)M ()V2H (32.)NP-61:57
263.3544MOTTET ChristianR.C NamurM ()V2H (33.)NP-61:57
264.3563RORIVE NicolasTeam MarcelM ()V1H (55.)NP-61:57
265.3564ROSSILLON AudreygagF ()V1F (36.)NP-61:57
266.3567SAMAIN Jean-LucM ()V3H (11.)NP-61:57
267.3574STEVENY MichaelM ()SeH (73.)NP-61:57
268.3575STOCK Jean-FrançoisM ()V2H (34.)NP-61:57
269.3580VAN DEN ABEELE DavidM ()V1H (56.)NP-61:57
270.3581VAN IMSCHOOT ElsF ()V1F (37.)NP-61:57
271.3588WATHELET VanessaF ()V1F (38.)NP-61:57
272.3589WATTEYNE Vincent-M ()SeH (74.)NP-61:57
273.3590WERION CécileF ()V3F (3.)NP-61:57
9KM
1.282LAFORGE BriceM (1.)SeH (1.)36:59--14.6
2.276MATTART AntoineM (2.)JuH (1.)38:02+1:0314.2
3.218DEMARCIN ThomasMade in GesvesM (3.)SeH (2.)40:06+3:0713.4
4.285GERMIAT BorisM (4.)SeH (3.)41:45+4:4612.9
5.239HOUSIAUX DimitriARCHM (5.)SeH (4.)43:04+6:0512.5
6.267SIMON CorentinM (6.)SeH (5.)46:01+9:0211.7
7.299LAMBOTTE PascalM (7.)V2H (1.)47:27+10:2811.3
8.226FRASELLE BrieucM (8.)JuH (2.)48:49+11:5011.0
9.219DEMORTIER FabriceM (9.)V1H (1.)49:03+12:0411.0
10.322GERARD AntoineM (10.)SeH (6.)50:10+13:1110.7
11.260RENNA AdrienM (11.)SeH (7.)50:15+13:1610.7
12.326MARCUZZI FabioM (12.)V1H (2.)50:25+13:2610.7
13.227GARCIA CABALE NicolasM (13.)SeH (8.)50:48+13:4910.6
14.313TOURWEMENNE ChristopheM (14.)SeH (9.)51:01+14:0210.5
15.302MATAGUE BenoitM (15.)V1H (3.)51:07+14:0810.5
16.217DELWICHE BaptisteTriathlon Club AndenneM (16.)SeH (10.)51:28+14:2910.4
17.310LECLERE YannickM (17.)V1H (4.)51:30+14:3110.4
18.318KLINKENBERG LaurentM (18.)V1H (5.)52:24+15:2510.3
19.286BASTOGNE AntoineM (19.)JuH (3.)52:38+15:3910.2
20.274WILWERTH Jean-PhilippeM (20.)SeH (11.)53:02+16:0310.1
21.325VOPHUC KevanM (21.)SeH (12.)53:10+16:1110.1
22.261RICHARD BenoîtM (22.)V1H (6.)53:30+16:3110.0
23.288ROBIN NoamM (23.)JuH (4.)53:52+16:5310.0
24.300LAMBOTTE ManonF (1.)EspF (1.)53:56+16:5710.0
25.289DELDEBES FabienM (24.)V2H (2.)53:56+16:5710.0
26.301LEVAQUE DelphineF (2.)V1F (1.)53:58+16:5910.0
27.316VANOVERSCHELDE GillesM (25.)SeH (13.)54:00+17:0110.0
28.275DE ALHEIDA CarlosM (26.)V2H (3.)54:02+17:039.9
29.294VAN ELSUWEGE SabineF (3.)V1F (2.)54:25+17:269.9
30.317CHAUFOURAUX JeromeM (27.)SeH (14.)54:56+17:579.8
31.3520BATAILLE RémyM (28.)SeH (15.)55:04+18:059.8
32.304CORTIAL LilianM (29.)V1H (7.)55:21+18:229.7
33.305GREGOIRE SandraF (4.)V1F (3.)55:46+18:479.6
34.284ALEXEEVA OxanaF (5.)SeF (1.)56:01+19:029.6
35.298MATIVA LucieF (6.)SeF (2.)56:45+19:469.5
36.323HENNAUX BrunoM (30.)V2H (4.)57:06+20:079.4
37.259REKA AdmirM (31.)SeH (16.)57:15+20:169.4
38.320SUTO ManonF (7.)EspF (2.)57:23+20:249.4
39.210CAUSTEUR VernerM (32.)V1H (8.)57:36+20:379.3
40.269TACK ValerieF (8.)SeF (3.)58:38+21:399.2
41.279DURIEUX FlorineF (9.)JuF (1.)59:14+22:159.1
42.281ETEROVIC SandraF (10.)V1F (4.)59:25+22:269.0
43.303SIMON NathalieF (11.)V1F (5.)59:44+22:459.0
44.292ANDRÉ PierreM (33.)V1H (9.)1:00:23+23:248.9
45.291VAN CAUTER VeroniqueF (12.)V2F (1.)1:00:35+23:368.9
46.213DEHAM PaulineF (13.)SeF (4.)1:00:38+23:398.9
47.266SEUTIN FrédéricM (34.)V1H (10.)1:01:09+24:108.8
48.208BERTRAND YvesGAGM (35.)V2H (5.)1:01:31+24:328.7
49.250MARCQ AndréJCPMF EghezeeM (36.)V3H (1.)1:01:48+24:498.7
50.230GATHY CélineF (14.)SeF (5.)1:02:06+25:078.6
51.238HERQUIN AurélieFleuF (15.)EspF (3.)1:02:43+25:448.6
52.314MARICHAL StephanieF (16.)V1F (6.)1:02:49+25:508.5
53.297GROVEN VincentM (37.)SeH (17.)1:04:19+27:208.3
54.220DONNAY OlivierM (38.)V1H (11.)1:04:19+27:208.3
55.296LEGRAND NicoM (39.)SeH (18.)1:04:20+27:218.3
56.315ERNST PaulineF (17.)SeF (6.)1:04:20+27:218.3
57.319LEJEUNE PaulineF (18.)SeF (7.)1:04:37+27:388.3
58.263RONVEAUX LaetitiaF (19.)SeF (8.)1:04:37+27:388.3
59.215DELESCAILLE PaulineF (20.)SeF (9.)1:05:15+28:168.2
60.202BARBIER AmandineF (21.)SeF (10.)1:05:20+28:218.2
61.306GIELEN HermanM (40.)V1H (12.)1:05:35+28:368.2
62.265SERMON VéroniqueF (22.)V2F (2.)1:05:52+28:538.1
63.287DECKERS MichelM (41.)SeH (19.)1:05:58+28:598.1
64.311DELMARCELLE MarieF (23.)SeF (11.)1:06:06+29:078.1
65.243LECOMTE CarolineF (24.)SeF (12.)1:06:13+29:148.1
66.321GERARD Jean FrancoisM (42.)V2H (6.)1:06:17+29:188.1
67.324DE ROS LaurentM (43.)V1H (13.)1:06:18+29:198.1
68.312FRANCART VirginieF (25.)V1F (7.)1:06:19+29:208.1
69.272TRUANT Isabellejcpmf eghezéeF (26.)V2F (3.)1:06:24+29:258.1
70.247LHOSTE AlexandraF (27.)SeF (13.)1:06:28+29:298.1
71.236GREGOIRE HelenaF (28.)EspF (4.)1:06:36+29:378.1
72.216DELFOSSE CamilleTRAIL ANDENNEF (29.)SeF (14.)1:06:47+29:488.0
73.3549PEREZ AlvaroTRAIL ANDENNEM (44.)SeH (20.)1:07:15+30:168.0
74.258PUTZ PaulineOCANF (30.)SeF (15.)1:08:03+31:047.9
75.214DEKERPEL CecileF (31.)SeF (16.)1:08:03+31:047.9
76.240JAMOTTON Anne-SophieF (32.)V1F (8.)1:08:15+31:167.9
77.224FILLEE NathalieGAGF (33.)V2F (4.)1:08:53+31:547.8
78.254MUS LaurenceF (34.)V1F (9.)1:09:20+32:217.7
79.231GATHY FlorenceF (35.)V2F (5.)1:09:29+32:307.7
80.273VANOVERBERGHE MarieJCPMF AndenneF (36.)SeF (17.)1:11:49+34:507.5
81.252MASOIN MaxM (45.)SeH (21.)1:11:50+34:517.5
82.278DEGEE SabrinaF (37.)V1F (10.)1:11:59+35:007.5
83.277MATTART LouiseF (38.)JuF (2.)1:11:59+35:007.5
84.221DUSSARD MayaF (39.)JuF (3.)1:12:03+35:047.4
85.328LEDUC KevinM (46.)SeH (22.)1:12:39+35:407.4
86.327LEDUC JordanM (47.)SeH (23.)1:12:39+35:407.4
87.308VISSE ColineF (40.)SeF (18.)1:13:53+36:547.3
88.251MARLAIRE CatherineF (41.)V2F (6.)1:13:57+36:587.3
89.262RONVEAUX CynthiaF (42.)SeF (19.)1:14:12+37:137.2
90.234GOFFINET IsabelleJCPMF eghezeeF (43.)V2F (7.)1:14:45+37:467.2
91.253MEERT GaëlleF (44.)SeF (20.)1:17:16+40:176.9
92.225FLAMANT DavidBiotrailM (48.)SeH (24.)1:17:16+40:176.9
93.309LEPERE MurielF (45.)V2F (8.)1:17:33+40:346.9
94.246LEURIS VincianeF (46.)V1F (11.)1:17:35+40:366.9
95.209BLONDIAU CatherineF (47.)V2F (9.)1:17:47+40:486.9
96.307LACROIX DelphineF (48.)V1F (12.)1:20:24+43:256.7
97.283PIRARD ThierryM (49.)V2H (7.)1:21:02+44:036.6
98.280RENVEZ MireilleF (49.)V2F (10.)1:21:50+44:516.5
99.257PIRONNET SandrinerunastockF (50.)V1F (13.)1:22:01+45:026.5
100.222FABIANO SuzanneF (51.)V1F (14.)1:23:18+46:196.4
101.233GOFFIN IsabelleGAGF (52.)V1F (15.)1:24:57+47:586.3
102.206BERLIERE SophieF (53.)SeF (21.)1:33:32+56:335.7
103.295VANHULST IsabelleF (54.)SeF (22.)1:33:36+56:375.7
104.290VANOLANDE Anne CatherineF (55.)SeF (23.)1:33:37+56:385.7
105.3573SPRONCK Sabinercb galF (56.)V2F (11.)1:33:38+56:395.7
106.212COLLIGNON CécileNatu'RunF (57.)V1F (16.)1:51:10+74:114.8
107.203BAUGNET JoelleF ()V2F (12.)NP-36:59
108.204BAUMANS JohanrunastockM ()EspH (1.)NP-36:59
109.228GASPARD Dorian/M ()SeH (25.)NP-36:59
110.235GOOSSENS AnnickE.T.EngienF ()V2F (13.)NP-36:59
111.237HEMBISE ThibaultM ()SeH (26.)NP-36:59
112.241JOIRET MargauxF ()SeF (24.)NP-36:59
113.248L’HOMME AmelieF ()SeF (25.)NP-36:59
114.249MALBRECQ ClémenceWeTrailF ()SeF (26.)NP-36:59
115.255NOWAKOWSKI StéphanieF ()SeF (27.)NP-36:59
116.256PIERLET JulieTCAF ()SeF (28.)NP-36:59
117.264SCHEMBRI JosephM ()V1H (14.)NP-36:59
118.268STAS LaurenceRunning fernelmontF ()V1F (17.)NP-36:59
119.270TIHON EmelineF ()SeF (29.)NP-36:59
120.271TITART OcéaneRCBF ()SeF (30.)NP-36:59
121.205BELLAIRE JonathanSport & FunM (50.)V1H (15.)NP+205:122.2
122.242JOVENEAU MargauxF (58.)SeF (31.)NP+205:132.2
123.201ARNAUD GoenenM (51.)V1H (16.)NP+205:132.2
124.232GAUTHIER BertrandM (52.)V1H (17.)NP+205:132.2
125.211COLIGNON SebastienM (53.)V1H (18.)NP+205:132.2
126.207BERTIAU CharlotteF (59.)SeF (32.)NP+205:132.2
127.229GASQUET EmilieF (60.)V1F (18.)NP+205:132.2
128.223FABIANO SuzanneF (61.)V1F (19.)NP+205:142.2
Chronométrage Ultratiming.be